sensor_id;sensor_type;location;lat;lon;timestamp;P1;durP1;ratioP1;P2;durP2;ratioP2
5762;SDS011;2906;53.282;9.508;2023-02-11T00:01:04;78.88;;;30.75;;
5762;SDS011;2906;53.282;9.508;2023-02-11T00:02:07;73.85;;;29.60;;
5762;SDS011;2906;53.282;9.508;2023-02-11T00:03:09;71.90;;;29.65;;
5762;SDS011;2906;53.282;9.508;2023-02-11T00:04:11;69.15;;;27.60;;
5762;SDS011;2906;53.282;9.508;2023-02-11T00:05:14;65.55;;;29.05;;
5762;SDS011;2906;53.282;9.508;2023-02-11T00:06:15;68.95;;;29.85;;
5762;SDS011;2906;53.282;9.508;2023-02-11T00:07:18;76.43;;;30.95;;
5762;SDS011;2906;53.282;9.508;2023-02-11T00:08:19;71.18;;;30.17;;
5762;SDS011;2906;53.282;9.508;2023-02-11T00:09:21;75.90;;;30.02;;
5762;SDS011;2906;53.282;9.508;2023-02-11T00:10:23;73.00;;;29.73;;
5762;SDS011;2906;53.282;9.508;2023-02-11T00:11:25;69.35;;;28.98;;
5762;SDS011;2906;53.282;9.508;2023-02-11T00:12:29;60.75;;;26.38;;
5762;SDS011;2906;53.282;9.508;2023-02-11T00:13:30;70.18;;;28.67;;
5762;SDS011;2906;53.282;9.508;2023-02-11T00:14:32;72.60;;;31.52;;
5762;SDS011;2906;53.282;9.508;2023-02-11T00:15:34;67.10;;;28.50;;
5762;SDS011;2906;53.282;9.508;2023-02-11T00:16:36;69.88;;;28.77;;
5762;SDS011;2906;53.282;9.508;2023-02-11T00:17:37;73.18;;;31.77;;
5762;SDS011;2906;53.282;9.508;2023-02-11T00:18:40;70.20;;;31.08;;
5762;SDS011;2906;53.282;9.508;2023-02-11T00:19:42;64.97;;;28.90;;
5762;SDS011;2906;53.282;9.508;2023-02-11T00:20:44;80.32;;;29.25;;
5762;SDS011;2906;53.282;9.508;2023-02-11T00:21:46;71.65;;;29.17;;
5762;SDS011;2906;53.282;9.508;2023-02-11T00:22:48;69.93;;;29.15;;
5762;SDS011;2906;53.282;9.508;2023-02-11T00:23:50;72.75;;;29.17;;
5762;SDS011;2906;53.282;9.508;2023-02-11T00:24:52;69.00;;;28.73;;
5762;SDS011;2906;53.282;9.508;2023-02-11T00:25:53;70.05;;;27.17;;
5762;SDS011;2906;53.282;9.508;2023-02-11T00:26:56;62.83;;;28.58;;
5762;SDS011;2906;53.282;9.508;2023-02-11T00:27:57;84.70;;;35.42;;
5762;SDS011;2906;53.282;9.508;2023-02-11T00:28:59;64.35;;;26.63;;
5762;SDS011;2906;53.282;9.508;2023-02-11T00:30:01;75.07;;;28.75;;
5762;SDS011;2906;53.282;9.508;2023-02-11T00:31:04;67.43;;;29.30;;
5762;SDS011;2906;53.282;9.508;2023-02-11T00:32:05;75.35;;;27.70;;
5762;SDS011;2906;53.282;9.508;2023-02-11T00:33:08;65.68;;;30.25;;
5762;SDS011;2906;53.282;9.508;2023-02-11T00:34:09;69.65;;;25.23;;
5762;SDS011;2906;53.282;9.508;2023-02-11T00:35:13;69.00;;;28.88;;
5762;SDS011;2906;53.282;9.508;2023-02-11T00:36:15;78.88;;;27.65;;
5762;SDS011;2906;53.282;9.508;2023-02-11T00:37:17;67.32;;;27.67;;
5762;SDS011;2906;53.282;9.508;2023-02-11T00:38:18;68.65;;;27.67;;
5762;SDS011;2906;53.282;9.508;2023-02-11T00:39:21;75.50;;;27.88;;
5762;SDS011;2906;53.282;9.508;2023-02-11T00:40:22;64.75;;;28.55;;
5762;SDS011;2906;53.282;9.508;2023-02-11T00:41:24;67.22;;;26.80;;
5762;SDS011;2906;53.282;9.508;2023-02-11T00:42:25;66.90;;;28.85;;
5762;SDS011;2906;53.282;9.508;2023-02-11T00:43:28;67.53;;;28.65;;
5762;SDS011;2906;53.282;9.508;2023-02-11T00:44:29;72.55;;;28.92;;
5762;SDS011;2906;53.282;9.508;2023-02-11T00:45:31;71.45;;;28.95;;
5762;SDS011;2906;53.282;9.508;2023-02-11T00:46:33;74.28;;;27.98;;
5762;SDS011;2906;53.282;9.508;2023-02-11T00:47:35;67.70;;;27.98;;
5762;SDS011;2906;53.282;9.508;2023-02-11T00:48:36;71.70;;;28.38;;
5762;SDS011;2906;53.282;9.508;2023-02-11T00:49:39;64.97;;;26.40;;
5762;SDS011;2906;53.282;9.508;2023-02-11T00:50:41;62.22;;;25.85;;
5762;SDS011;2906;53.282;9.508;2023-02-11T00:51:43;72.88;;;25.80;;
5762;SDS011;2906;53.282;9.508;2023-02-11T00:52:46;64.13;;;27.17;;
5762;SDS011;2906;53.282;9.508;2023-02-11T00:53:47;71.20;;;25.58;;
5762;SDS011;2906;53.282;9.508;2023-02-11T00:54:49;67.47;;;26.33;;
5762;SDS011;2906;53.282;9.508;2023-02-11T00:55:51;62.50;;;24.95;;
5762;SDS011;2906;53.282;9.508;2023-02-11T00:56:53;77.10;;;29.50;;
5762;SDS011;2906;53.282;9.508;2023-02-11T00:57:54;67.25;;;26.30;;
5762;SDS011;2906;53.282;9.508;2023-02-11T00:58:57;68.80;;;26.42;;
5762;SDS011;2906;53.282;9.508;2023-02-11T00:59:59;75.15;;;28.08;;
5762;SDS011;2906;53.282;9.508;2023-02-11T01:01:01;76.18;;;25.77;;
5762;SDS011;2906;53.282;9.508;2023-02-11T01:02:03;74.38;;;25.65;;
5762;SDS011;2906;53.282;9.508;2023-02-11T01:03:05;62.90;;;25.10;;
5762;SDS011;2906;53.282;9.508;2023-02-11T01:04:06;68.82;;;25.80;;
5762;SDS011;2906;53.282;9.508;2023-02-11T01:05:09;63.22;;;26.98;;
5762;SDS011;2906;53.282;9.508;2023-02-11T01:06:11;75.38;;;28.02;;
5762;SDS011;2906;53.282;9.508;2023-02-11T01:07:13;64.85;;;25.65;;
5762;SDS011;2906;53.282;9.508;2023-02-11T01:08:15;65.35;;;27.10;;
5762;SDS011;2906;53.282;9.508;2023-02-11T01:09:17;64.82;;;28.42;;
5762;SDS011;2906;53.282;9.508;2023-02-11T01:10:20;63.50;;;25.13;;
5762;SDS011;2906;53.282;9.508;2023-02-11T01:11:22;65.72;;;27.10;;
5762;SDS011;2906;53.282;9.508;2023-02-11T01:12:23;62.40;;;25.35;;
5762;SDS011;2906;53.282;9.508;2023-02-11T01:13:26;67.82;;;27.55;;
5762;SDS011;2906;53.282;9.508;2023-02-11T01:14:27;63.47;;;24.58;;
5762;SDS011;2906;53.282;9.508;2023-02-11T01:15:30;61.50;;;27.45;;
5762;SDS011;2906;53.282;9.508;2023-02-11T01:16:31;66.43;;;26.45;;
5762;SDS011;2906;53.282;9.508;2023-02-11T01:17:34;80.10;;;26.50;;
5762;SDS011;2906;53.282;9.508;2023-02-11T01:18:36;59.67;;;24.27;;
5762;SDS011;2906;53.282;9.508;2023-02-11T01:19:38;76.65;;;26.85;;
5762;SDS011;2906;53.282;9.508;2023-02-11T01:20:39;64.40;;;25.58;;
5762;SDS011;2906;53.282;9.508;2023-02-11T01:21:43;61.55;;;23.48;;
5762;SDS011;2906;53.282;9.508;2023-02-11T01:22:44;66.57;;;25.67;;
5762;SDS011;2906;53.282;9.508;2023-02-11T01:23:46;66.55;;;28.10;;
5762;SDS011;2906;53.282;9.508;2023-02-11T01:24:48;64.20;;;24.25;;
5762;SDS011;2906;53.282;9.508;2023-02-11T01:25:50;63.15;;;25.70;;
5762;SDS011;2906;53.282;9.508;2023-02-11T01:26:51;71.22;;;27.50;;
5762;SDS011;2906;53.282;9.508;2023-02-11T01:27:54;60.92;;;24.42;;
5762;SDS011;2906;53.282;9.508;2023-02-11T01:28:55;65.57;;;27.67;;
5762;SDS011;2906;53.282;9.508;2023-02-11T01:29:59;68.38;;;26.10;;
5762;SDS011;2906;53.282;9.508;2023-02-11T01:31:00;79.32;;;26.83;;
5762;SDS011;2906;53.282;9.508;2023-02-11T01:32:02;63.03;;;24.38;;
5762;SDS011;2906;53.282;9.508;2023-02-11T01:33:05;60.50;;;25.80;;
5762;SDS011;2906;53.282;9.508;2023-02-11T01:34:06;66.45;;;25.52;;
5762;SDS011;2906;53.282;9.508;2023-02-11T01:35:08;58.13;;;25.52;;
5762;SDS011;2906;53.282;9.508;2023-02-11T01:36:10;78.25;;;25.02;;
5762;SDS011;2906;53.282;9.508;2023-02-11T01:37:14;65.78;;;25.15;;
5762;SDS011;2906;53.282;9.508;2023-02-11T01:38:16;65.80;;;26.27;;
5762;SDS011;2906;53.282;9.508;2023-02-11T01:39:18;70.22;;;25.73;;
5762;SDS011;2906;53.282;9.508;2023-02-11T01:40:20;60.45;;;25.02;;
5762;SDS011;2906;53.282;9.508;2023-02-11T01:41:22;57.75;;;25.40;;
5762;SDS011;2906;53.282;9.508;2023-02-11T01:42:23;75.85;;;26.33;;
5762;SDS011;2906;53.282;9.508;2023-02-11T01:43:26;68.93;;;26.58;;
5762;SDS011;2906;53.282;9.508;2023-02-11T01:44:29;63.20;;;24.92;;
5762;SDS011;2906;53.282;9.508;2023-02-11T01:46:48;64.38;;;26.50;;
5762;SDS011;2906;53.282;9.508;2023-02-11T01:47:50;68.18;;;24.83;;
5762;SDS011;2906;53.282;9.508;2023-02-11T01:48:52;73.35;;;26.05;;
5762;SDS011;2906;53.282;9.508;2023-02-11T01:49:56;52.40;;;22.02;;
5762;SDS011;2906;53.282;9.508;2023-02-11T01:51:00;59.58;;;24.98;;
5762;SDS011;2906;53.282;9.508;2023-02-11T01:52:04;61.90;;;23.17;;
5762;SDS011;2906;53.282;9.508;2023-02-11T01:53:08;81.85;;;26.95;;
5762;SDS011;2906;53.282;9.508;2023-02-11T01:54:25;68.00;;;25.98;;
5762;SDS011;2906;53.282;9.508;2023-02-11T01:55:43;59.67;;;23.80;;
5762;SDS011;2906;53.282;9.508;2023-02-11T01:56:59;63.25;;;23.75;;
5762;SDS011;2906;53.282;9.508;2023-02-11T01:58:16;83.05;;;25.00;;
5762;SDS011;2906;53.282;9.508;2023-02-11T01:59:21;62.60;;;23.25;;
5762;SDS011;2906;53.282;9.508;2023-02-11T02:00:24;57.22;;;24.30;;
5762;SDS011;2906;53.282;9.508;2023-02-11T02:01:28;59.42;;;23.15;;
5762;SDS011;2906;53.282;9.508;2023-02-11T02:02:32;52.70;;;23.45;;
5762;SDS011;2906;53.282;9.508;2023-02-11T02:03:35;61.83;;;24.38;;
5762;SDS011;2906;53.282;9.508;2023-02-11T02:04:37;68.68;;;25.30;;
5762;SDS011;2906;53.282;9.508;2023-02-11T02:05:43;51.85;;;20.98;;
5762;SDS011;2906;53.282;9.508;2023-02-11T02:06:48;65.85;;;23.95;;
5762;SDS011;2906;53.282;9.508;2023-02-11T02:07:53;59.70;;;24.23;;
5762;SDS011;2906;53.282;9.508;2023-02-11T02:08:59;62.40;;;25.50;;
5762;SDS011;2906;53.282;9.508;2023-02-11T02:10:04;57.45;;;22.50;;
5762;SDS011;2906;53.282;9.508;2023-02-11T02:11:07;69.18;;;25.13;;
5762;SDS011;2906;53.282;9.508;2023-02-11T02:12:09;55.22;;;22.15;;
5762;SDS011;2906;53.282;9.508;2023-02-11T02:13:11;61.42;;;23.80;;
5762;SDS011;2906;53.282;9.508;2023-02-11T02:14:13;56.72;;;23.35;;
5762;SDS011;2906;53.282;9.508;2023-02-11T02:15:18;64.13;;;23.77;;
5762;SDS011;2906;53.282;9.508;2023-02-11T02:16:21;54.38;;;22.67;;
5762;SDS011;2906;53.282;9.508;2023-02-11T02:17:28;59.40;;;23.23;;
5762;SDS011;2906;53.282;9.508;2023-02-11T02:18:35;67.20;;;24.33;;
5762;SDS011;2906;53.282;9.508;2023-02-11T02:19:45;74.70;;;25.10;;
5762;SDS011;2906;53.282;9.508;2023-02-11T02:21:03;57.65;;;24.65;;
5762;SDS011;2906;53.282;9.508;2023-02-11T02:22:19;59.00;;;22.33;;
5762;SDS011;2906;53.282;9.508;2023-02-11T02:23:27;69.43;;;23.50;;
5762;SDS011;2906;53.282;9.508;2023-02-11T02:24:38;46.83;;;20.35;;
5762;SDS011;2906;53.282;9.508;2023-02-11T02:25:47;59.05;;;23.30;;
5762;SDS011;2906;53.282;9.508;2023-02-11T02:27:00;56.33;;;22.25;;
5762;SDS011;2906;53.282;9.508;2023-02-11T02:28:08;59.05;;;21.58;;
5762;SDS011;2906;53.282;9.508;2023-02-11T02:29:21;64.00;;;21.98;;
5762;SDS011;2906;53.282;9.508;2023-02-11T02:30:35;52.33;;;21.15;;
5762;SDS011;2906;53.282;9.508;2023-02-11T02:31:49;61.42;;;22.00;;
5762;SDS011;2906;53.282;9.508;2023-02-11T02:32:57;50.38;;;22.98;;
5762;SDS011;2906;53.282;9.508;2023-02-11T02:34:02;68.05;;;22.05;;
5762;SDS011;2906;53.282;9.508;2023-02-11T02:35:09;68.57;;;22.98;;
5762;SDS011;2906;53.282;9.508;2023-02-11T02:36:14;64.53;;;22.30;;
5762;SDS011;2906;53.282;9.508;2023-02-11T02:37:18;65.25;;;24.25;;
5762;SDS011;2906;53.282;9.508;2023-02-11T02:38:24;56.10;;;21.83;;
5762;SDS011;2906;53.282;9.508;2023-02-11T02:39:28;60.00;;;23.02;;
5762;SDS011;2906;53.282;9.508;2023-02-11T02:40:33;61.67;;;21.48;;
5762;SDS011;2906;53.282;9.508;2023-02-11T02:41:36;65.93;;;22.02;;
5762;SDS011;2906;53.282;9.508;2023-02-11T02:42:39;59.17;;;22.80;;
5762;SDS011;2906;53.282;9.508;2023-02-11T02:43:42;55.10;;;22.00;;
5762;SDS011;2906;53.282;9.508;2023-02-11T02:44:47;55.38;;;20.05;;
5762;SDS011;2906;53.282;9.508;2023-02-11T02:45:48;54.55;;;21.02;;
5762;SDS011;2906;53.282;9.508;2023-02-11T02:46:50;70.18;;;20.63;;
5762;SDS011;2906;53.282;9.508;2023-02-11T02:47:52;54.10;;;19.17;;
5762;SDS011;2906;53.282;9.508;2023-02-11T02:48:55;54.42;;;21.23;;
5762;SDS011;2906;53.282;9.508;2023-02-11T02:49:57;57.13;;;19.88;;
5762;SDS011;2906;53.282;9.508;2023-02-11T02:51:02;59.38;;;23.38;;
5762;SDS011;2906;53.282;9.508;2023-02-11T02:52:12;60.72;;;22.02;;
5762;SDS011;2906;53.282;9.508;2023-02-11T02:53:17;57.40;;;19.80;;
5762;SDS011;2906;53.282;9.508;2023-02-11T02:54:27;53.50;;;21.45;;
5762;SDS011;2906;53.282;9.508;2023-02-11T02:55:33;59.38;;;19.55;;
5762;SDS011;2906;53.282;9.508;2023-02-11T02:56:39;53.03;;;22.05;;
5762;SDS011;2906;53.282;9.508;2023-02-11T02:57:49;54.70;;;21.13;;
5762;SDS011;2906;53.282;9.508;2023-02-11T02:58:57;49.13;;;20.52;;
5762;SDS011;2906;53.282;9.508;2023-02-11T03:00:11;42.33;;;19.42;;
5762;SDS011;2906;53.282;9.508;2023-02-11T03:01:16;52.42;;;20.65;;
5762;SDS011;2906;53.282;9.508;2023-02-11T03:02:21;61.92;;;20.05;;
5762;SDS011;2906;53.282;9.508;2023-02-11T03:03:27;59.42;;;21.95;;
5762;SDS011;2906;53.282;9.508;2023-02-11T03:04:34;57.78;;;21.75;;
5762;SDS011;2906;53.282;9.508;2023-02-11T03:05:38;51.70;;;19.98;;
5762;SDS011;2906;53.282;9.508;2023-02-11T03:06:47;50.85;;;19.33;;
5762;SDS011;2906;53.282;9.508;2023-02-11T03:07:50;48.05;;;19.75;;
5762;SDS011;2906;53.282;9.508;2023-02-11T03:08:55;62.70;;;21.10;;
5762;SDS011;2906;53.282;9.508;2023-02-11T03:09:58;55.45;;;19.75;;
5762;SDS011;2906;53.282;9.508;2023-02-11T03:11:01;49.67;;;19.65;;
5762;SDS011;2906;53.282;9.508;2023-02-11T03:12:03;52.92;;;20.75;;
5762;SDS011;2906;53.282;9.508;2023-02-11T03:13:07;44.72;;;18.77;;
5762;SDS011;2906;53.282;9.508;2023-02-11T03:14:10;51.55;;;19.50;;
5762;SDS011;2906;53.282;9.508;2023-02-11T03:15:13;49.42;;;19.00;;
5762;SDS011;2906;53.282;9.508;2023-02-11T03:16:16;49.53;;;17.98;;
5762;SDS011;2906;53.282;9.508;2023-02-11T03:17:19;52.28;;;19.20;;
5762;SDS011;2906;53.282;9.508;2023-02-11T03:18:22;53.38;;;18.63;;
5762;SDS011;2906;53.282;9.508;2023-02-11T03:19:27;65.35;;;20.20;;
5762;SDS011;2906;53.282;9.508;2023-02-11T03:20:30;53.33;;;20.45;;
5762;SDS011;2906;53.282;9.508;2023-02-11T03:21:33;54.42;;;18.02;;
5762;SDS011;2906;53.282;9.508;2023-02-11T03:22:36;47.67;;;19.25;;
5762;SDS011;2906;53.282;9.508;2023-02-11T03:23:40;58.70;;;19.20;;
5762;SDS011;2906;53.282;9.508;2023-02-11T03:24:42;42.22;;;18.00;;
5762;SDS011;2906;53.282;9.508;2023-02-11T03:25:47;45.45;;;17.75;;
5762;SDS011;2906;53.282;9.508;2023-02-11T03:26:50;46.20;;;18.35;;
5762;SDS011;2906;53.282;9.508;2023-02-11T03:27:56;61.00;;;18.67;;
5762;SDS011;2906;53.282;9.508;2023-02-11T03:29:00;53.30;;;19.20;;
5762;SDS011;2906;53.282;9.508;2023-02-11T03:30:04;63.83;;;18.27;;
5762;SDS011;2906;53.282;9.508;2023-02-11T03:31:08;49.65;;;18.63;;
5762;SDS011;2906;53.282;9.508;2023-02-11T03:32:12;55.65;;;18.75;;
5762;SDS011;2906;53.282;9.508;2023-02-11T03:34:33;47.03;;;17.45;;
5762;SDS011;2906;53.282;9.508;2023-02-11T03:35:38;45.90;;;17.45;;
5762;SDS011;2906;53.282;9.508;2023-02-11T03:36:43;58.50;;;19.40;;
5762;SDS011;2906;53.282;9.508;2023-02-11T03:37:48;44.38;;;17.30;;
5762;SDS011;2906;53.282;9.508;2023-02-11T03:38:53;47.22;;;18.02;;
5762;SDS011;2906;53.282;9.508;2023-02-11T03:39:59;45.25;;;16.80;;
5762;SDS011;2906;53.282;9.508;2023-02-11T03:41:02;40.22;;;17.35;;
5762;SDS011;2906;53.282;9.508;2023-02-11T03:42:05;43.67;;;17.40;;
5762;SDS011;2906;53.282;9.508;2023-02-11T03:43:11;50.15;;;18.02;;
5762;SDS011;2906;53.282;9.508;2023-02-11T03:44:16;39.15;;;16.83;;
5762;SDS011;2906;53.282;9.508;2023-02-11T03:45:20;45.00;;;16.20;;
5762;SDS011;2906;53.282;9.508;2023-02-11T03:46:23;52.47;;;17.17;;
5762;SDS011;2906;53.282;9.508;2023-02-11T03:47:28;49.97;;;19.10;;
5762;SDS011;2906;53.282;9.508;2023-02-11T03:48:32;56.78;;;19.35;;
5762;SDS011;2906;53.282;9.508;2023-02-11T03:49:35;60.55;;;18.38;;
5762;SDS011;2906;53.282;9.508;2023-02-11T03:50:39;43.22;;;17.67;;
5762;SDS011;2906;53.282;9.508;2023-02-11T03:51:42;45.70;;;17.15;;
5762;SDS011;2906;53.282;9.508;2023-02-11T03:52:44;42.58;;;16.33;;
5762;SDS011;2906;53.282;9.508;2023-02-11T03:53:47;50.38;;;18.50;;
5762;SDS011;2906;53.282;9.508;2023-02-11T03:54:50;45.17;;;17.65;;
5762;SDS011;2906;53.282;9.508;2023-02-11T03:55:55;41.35;;;16.77;;
5762;SDS011;2906;53.282;9.508;2023-02-11T03:56:59;53.75;;;18.08;;
5762;SDS011;2906;53.282;9.508;2023-02-11T03:58:02;45.17;;;17.73;;
5762;SDS011;2906;53.282;9.508;2023-02-11T03:59:03;44.20;;;16.35;;
5762;SDS011;2906;53.282;9.508;2023-02-11T04:00:06;43.80;;;17.00;;
5762;SDS011;2906;53.282;9.508;2023-02-11T04:01:07;59.20;;;19.02;;
5762;SDS011;2906;53.282;9.508;2023-02-11T04:02:10;66.10;;;18.10;;
5762;SDS011;2906;53.282;9.508;2023-02-11T04:03:11;50.33;;;17.75;;
5762;SDS011;2906;53.282;9.508;2023-02-11T04:04:13;54.03;;;18.50;;
5762;SDS011;2906;53.282;9.508;2023-02-11T04:05:15;48.70;;;16.95;;
5762;SDS011;2906;53.282;9.508;2023-02-11T04:06:18;45.28;;;16.35;;
5762;SDS011;2906;53.282;9.508;2023-02-11T04:07:20;48.28;;;17.42;;
5762;SDS011;2906;53.282;9.508;2023-02-11T04:08:22;49.35;;;17.42;;
5762;SDS011;2906;53.282;9.508;2023-02-11T04:09:23;47.90;;;16.98;;
5762;SDS011;2906;53.282;9.508;2023-02-11T04:10:26;43.08;;;16.27;;
5762;SDS011;2906;53.282;9.508;2023-02-11T04:11:28;51.10;;;16.20;;
5762;SDS011;2906;53.282;9.508;2023-02-11T04:12:29;58.10;;;18.52;;
5762;SDS011;2906;53.282;9.508;2023-02-11T04:13:31;42.40;;;16.98;;
5762;SDS011;2906;53.282;9.508;2023-02-11T04:14:33;49.80;;;15.50;;
5762;SDS011;2906;53.282;9.508;2023-02-11T04:15:35;47.88;;;17.30;;
5762;SDS011;2906;53.282;9.508;2023-02-11T04:16:36;47.92;;;17.08;;
5762;SDS011;2906;53.282;9.508;2023-02-11T04:17:40;40.15;;;15.68;;
5762;SDS011;2906;53.282;9.508;2023-02-11T04:18:41;43.22;;;17.30;;
5762;SDS011;2906;53.282;9.508;2023-02-11T04:19:43;48.65;;;15.60;;
5762;SDS011;2906;53.282;9.508;2023-02-11T04:20:45;49.80;;;15.35;;
5762;SDS011;2906;53.282;9.508;2023-02-11T04:21:48;47.22;;;16.35;;
5762;SDS011;2906;53.282;9.508;2023-02-11T04:22:49;45.97;;;16.10;;
5762;SDS011;2906;53.282;9.508;2023-02-11T04:23:52;45.05;;;17.58;;
5762;SDS011;2906;53.282;9.508;2023-02-11T04:24:53;46.85;;;16.35;;
5762;SDS011;2906;53.282;9.508;2023-02-11T04:25:56;40.83;;;14.68;;
5762;SDS011;2906;53.282;9.508;2023-02-11T04:26:58;47.42;;;18.13;;
5762;SDS011;2906;53.282;9.508;2023-02-11T04:28:00;43.45;;;16.40;;
5762;SDS011;2906;53.282;9.508;2023-02-11T04:29:01;46.55;;;16.95;;
5762;SDS011;2906;53.282;9.508;2023-02-11T04:30:04;43.33;;;15.63;;
5762;SDS011;2906;53.282;9.508;2023-02-11T04:31:06;44.85;;;15.93;;
5762;SDS011;2906;53.282;9.508;2023-02-11T04:32:09;41.78;;;16.25;;
5762;SDS011;2906;53.282;9.508;2023-02-11T04:33:11;52.80;;;17.02;;
5762;SDS011;2906;53.282;9.508;2023-02-11T04:34:13;51.25;;;17.67;;
5762;SDS011;2906;53.282;9.508;2023-02-11T04:35:15;44.15;;;16.05;;
5762;SDS011;2906;53.282;9.508;2023-02-11T04:36:17;45.80;;;15.48;;
5762;SDS011;2906;53.282;9.508;2023-02-11T04:37:21;50.15;;;16.02;;
5762;SDS011;2906;53.282;9.508;2023-02-11T04:38:22;56.67;;;17.70;;
5762;SDS011;2906;53.282;9.508;2023-02-11T04:39:24;39.40;;;14.15;;
5762;SDS011;2906;53.282;9.508;2023-02-11T04:40:26;43.25;;;14.55;;
5762;SDS011;2906;53.282;9.508;2023-02-11T04:41:28;47.08;;;16.02;;
5762;SDS011;2906;53.282;9.508;2023-02-11T04:42:29;43.70;;;14.63;;
5762;SDS011;2906;53.282;9.508;2023-02-11T04:43:31;46.42;;;16.50;;
5762;SDS011;2906;53.282;9.508;2023-02-11T04:44:33;39.10;;;15.30;;
5762;SDS011;2906;53.282;9.508;2023-02-11T04:45:35;47.58;;;17.20;;
5762;SDS011;2906;53.282;9.508;2023-02-11T04:46:36;51.45;;;17.88;;
5762;SDS011;2906;53.282;9.508;2023-02-11T04:47:38;37.22;;;14.73;;
5762;SDS011;2906;53.282;9.508;2023-02-11T04:48:40;51.95;;;16.42;;
5762;SDS011;2906;53.282;9.508;2023-02-11T04:49:42;45.30;;;16.02;;
5762;SDS011;2906;53.282;9.508;2023-02-11T04:50:43;44.88;;;16.63;;
5762;SDS011;2906;53.282;9.508;2023-02-11T04:51:46;44.47;;;16.73;;
5762;SDS011;2906;53.282;9.508;2023-02-11T04:52:48;40.95;;;15.35;;
5762;SDS011;2906;53.282;9.508;2023-02-11T04:53:50;46.22;;;15.57;;
5762;SDS011;2906;53.282;9.508;2023-02-11T04:54:52;45.50;;;16.25;;
5762;SDS011;2906;53.282;9.508;2023-02-11T04:55:54;62.15;;;15.77;;
5762;SDS011;2906;53.282;9.508;2023-02-11T04:56:55;37.42;;;15.00;;
5762;SDS011;2906;53.282;9.508;2023-02-11T04:57:57;53.53;;;15.43;;
5762;SDS011;2906;53.282;9.508;2023-02-11T04:58:59;51.08;;;15.57;;
5762;SDS011;2906;53.282;9.508;2023-02-11T05:00:01;43.28;;;14.90;;
5762;SDS011;2906;53.282;9.508;2023-02-11T05:01:04;47.38;;;15.32;;
5762;SDS011;2906;53.282;9.508;2023-02-11T05:02:06;48.58;;;15.27;;
5762;SDS011;2906;53.282;9.508;2023-02-11T05:03:08;47.13;;;16.88;;
5762;SDS011;2906;53.282;9.508;2023-02-11T05:04:10;44.08;;;14.35;;
5762;SDS011;2906;53.282;9.508;2023-02-11T05:05:11;38.30;;;13.90;;
5762;SDS011;2906;53.282;9.508;2023-02-11T05:06:14;49.60;;;15.25;;
5762;SDS011;2906;53.282;9.508;2023-02-11T05:07:15;44.65;;;15.90;;
5762;SDS011;2906;53.282;9.508;2023-02-11T05:08:18;40.03;;;14.52;;
5762;SDS011;2906;53.282;9.508;2023-02-11T05:09:20;48.85;;;16.02;;
5762;SDS011;2906;53.282;9.508;2023-02-11T05:10:22;47.42;;;17.85;;
5762;SDS011;2906;53.282;9.508;2023-02-11T05:11:24;43.38;;;14.88;;
5762;SDS011;2906;53.282;9.508;2023-02-11T05:12:26;47.83;;;14.60;;
5762;SDS011;2906;53.282;9.508;2023-02-11T05:13:28;43.97;;;14.60;;
5762;SDS011;2906;53.282;9.508;2023-02-11T05:14:30;49.75;;;15.40;;
5762;SDS011;2906;53.282;9.508;2023-02-11T05:15:32;51.47;;;14.55;;
5762;SDS011;2906;53.282;9.508;2023-02-11T05:16:34;43.78;;;13.50;;
5762;SDS011;2906;53.282;9.508;2023-02-11T05:17:35;58.28;;;16.27;;
5762;SDS011;2906;53.282;9.508;2023-02-11T05:18:38;39.80;;;14.77;;
5762;SDS011;2906;53.282;9.508;2023-02-11T05:19:40;39.53;;;13.48;;
5762;SDS011;2906;53.282;9.508;2023-02-11T05:20:42;45.42;;;15.45;;
5762;SDS011;2906;53.282;9.508;2023-02-11T05:21:44;56.40;;;15.45;;
5762;SDS011;2906;53.282;9.508;2023-02-11T05:22:46;39.08;;;15.55;;
5762;SDS011;2906;53.282;9.508;2023-02-11T05:23:48;46.15;;;15.68;;
5762;SDS011;2906;53.282;9.508;2023-02-11T05:24:51;49.42;;;14.68;;
5762;SDS011;2906;53.282;9.508;2023-02-11T05:25:52;39.38;;;14.60;;
5762;SDS011;2906;53.282;9.508;2023-02-11T05:26:54;43.85;;;13.30;;
5762;SDS011;2906;53.282;9.508;2023-02-11T05:27:55;43.78;;;13.30;;
5762;SDS011;2906;53.282;9.508;2023-02-11T05:28:58;41.35;;;14.95;;
5762;SDS011;2906;53.282;9.508;2023-02-11T05:30:00;43.05;;;14.98;;
5762;SDS011;2906;53.282;9.508;2023-02-11T05:31:02;41.50;;;14.23;;
5762;SDS011;2906;53.282;9.508;2023-02-11T05:32:04;38.45;;;13.90;;
5762;SDS011;2906;53.282;9.508;2023-02-11T05:33:08;39.30;;;14.35;;
5762;SDS011;2906;53.282;9.508;2023-02-11T05:34:09;53.42;;;14.55;;
5762;SDS011;2906;53.282;9.508;2023-02-11T05:35:11;43.65;;;14.40;;
5762;SDS011;2906;53.282;9.508;2023-02-11T05:36:12;41.53;;;14.93;;
5762;SDS011;2906;53.282;9.508;2023-02-11T05:37:16;40.85;;;12.30;;
5762;SDS011;2906;53.282;9.508;2023-02-11T05:38:17;42.63;;;14.13;;
5762;SDS011;2906;53.282;9.508;2023-02-11T05:39:21;49.17;;;15.85;;
5762;SDS011;2906;53.282;9.508;2023-02-11T05:40:22;44.70;;;13.80;;
5762;SDS011;2906;53.282;9.508;2023-02-11T05:41:24;42.00;;;13.07;;
5762;SDS011;2906;53.282;9.508;2023-02-11T05:42:25;42.35;;;14.77;;
5762;SDS011;2906;53.282;9.508;2023-02-11T05:43:28;38.28;;;13.13;;
5762;SDS011;2906;53.282;9.508;2023-02-11T05:44:29;40.30;;;13.85;;
5762;SDS011;2906;53.282;9.508;2023-02-11T05:45:31;46.33;;;15.43;;
5762;SDS011;2906;53.282;9.508;2023-02-11T05:46:32;39.72;;;14.52;;
5762;SDS011;2906;53.282;9.508;2023-02-11T05:47:35;41.25;;;13.20;;
5762;SDS011;2906;53.282;9.508;2023-02-11T05:48:36;41.20;;;13.68;;
5762;SDS011;2906;53.282;9.508;2023-02-11T05:49:38;56.63;;;14.88;;
5762;SDS011;2906;53.282;9.508;2023-02-11T05:50:40;33.55;;;13.05;;
5762;SDS011;2906;53.282;9.508;2023-02-11T05:51:42;41.00;;;13.30;;
5762;SDS011;2906;53.282;9.508;2023-02-11T05:52:43;43.58;;;14.02;;
5762;SDS011;2906;53.282;9.508;2023-02-11T05:53:46;47.63;;;13.52;;
5762;SDS011;2906;53.282;9.508;2023-02-11T05:54:48;42.65;;;13.43;;
5762;SDS011;2906;53.282;9.508;2023-02-11T05:55:51;40.35;;;14.05;;
5762;SDS011;2906;53.282;9.508;2023-02-11T05:56:52;39.90;;;14.00;;
5762;SDS011;2906;53.282;9.508;2023-02-11T05:57:54;41.35;;;14.43;;
5762;SDS011;2906;53.282;9.508;2023-02-11T05:58:57;41.30;;;15.48;;
5762;SDS011;2906;53.282;9.508;2023-02-11T05:59:59;47.00;;;15.77;;
5762;SDS011;2906;53.282;9.508;2023-02-11T06:01:01;42.50;;;15.77;;
5762;SDS011;2906;53.282;9.508;2023-02-11T06:02:03;43.08;;;15.88;;
5762;SDS011;2906;53.282;9.508;2023-02-11T06:03:04;44.80;;;13.80;;
5762;SDS011;2906;53.282;9.508;2023-02-11T06:04:07;41.80;;;14.50;;
5762;SDS011;2906;53.282;9.508;2023-02-11T06:05:08;50.55;;;15.52;;
5762;SDS011;2906;53.282;9.508;2023-02-11T06:06:10;40.42;;;15.15;;
5762;SDS011;2906;53.282;9.508;2023-02-11T06:07:12;43.00;;;13.43;;
5762;SDS011;2906;53.282;9.508;2023-02-11T06:08:14;29.98;;;12.63;;
5762;SDS011;2906;53.282;9.508;2023-02-11T06:09:16;48.72;;;14.55;;
5762;SDS011;2906;53.282;9.508;2023-02-11T06:10:19;43.20;;;14.50;;
5762;SDS011;2906;53.282;9.508;2023-02-11T06:11:20;45.03;;;13.30;;
5762;SDS011;2906;53.282;9.508;2023-02-11T06:12:23;45.83;;;15.20;;
5762;SDS011;2906;53.282;9.508;2023-02-11T06:13:24;44.00;;;14.57;;
5762;SDS011;2906;53.282;9.508;2023-02-11T06:14:26;44.03;;;15.88;;
5762;SDS011;2906;53.282;9.508;2023-02-11T06:15:27;39.67;;;13.57;;
5762;SDS011;2906;53.282;9.508;2023-02-11T06:16:30;41.65;;;14.30;;
5762;SDS011;2906;53.282;9.508;2023-02-11T06:17:31;35.10;;;14.00;;
5762;SDS011;2906;53.282;9.508;2023-02-11T06:18:35;38.35;;;13.77;;
5762;SDS011;2906;53.282;9.508;2023-02-11T06:19:36;44.70;;;15.10;;
5762;SDS011;2906;53.282;9.508;2023-02-11T06:20:39;51.95;;;15.13;;
5762;SDS011;2906;53.282;9.508;2023-02-11T06:21:40;46.05;;;14.35;;
5762;SDS011;2906;53.282;9.508;2023-02-11T06:22:42;39.13;;;13.20;;
5762;SDS011;2906;53.282;9.508;2023-02-11T06:23:44;43.08;;;13.80;;